Terminal Aerodrome Forecast
Issued by NWS Charleston, WV

Current Version | Previous Version | Graphics & Text | Print | Product List | Glossary On
Versions: 1 2 3 4 5 6 7 8 9 10 11 12 13 14 15 16 17 18 19 20
000
FTUS41 KRLX 311120
TAFBKW
TAF
KBKW 311120Z 3112/0112 18004KT P6SM BKN060
     FM010400 VRB03KT P6SM SCT070=

USA.gov is the U.S. government's official web portal to all federal, state and local government web resources and services.